Patriot — WDC2859 — position and weather

sailwx.info

Track history (hours):
 
Tides and Currents Weather Stations Pressure Air Temp Water Temp Dewpoint Dewpoint Depression Visibility Wind Speed Wind Dir Waves Ship Positions

Patriot

Owner: AMNAV Maritime Corporation, Oakland, CA. More information available from US FCC via Universal Licensing System and Coast Guard Vessel Documentation Center.

Last reported at 2018-Jan-23 10:53 UTC. Time now 2018-Jan-23 19:15 UTC.
Position N 38°02' W 122°07'.

Length 31 m; draft 4.6 m.

Type: Tug. MMSI: 366998680.

Date/timePositionNaut miles runAvg speedWind from/ knotsBaromVisibWave heightAir tempDewpointWater temp
2018-Jan-23 10:53N 38°02' W 122°07'0 0.1
2018-Jan-23 10:26N 38°02' W 122°07'0 1.1
2018-Jan-23 09:58N 38°02' W 122°08'0 0.0
2018-Jan-22 22:25N 38°02' W 122°08'0 0.4
2018-Jan-22 21:18N 38°02' W 122°09'1 1.8
2018-Jan-22 21:00N 38°02' W 122°08'13 0.3
2018-Jan-20 20:43N 38°02' W 121°51'14 0.6
2018-Jan-19 21:08N 38°02' W 122°08'2 1.3
2018-Jan-19 19:36N 38°03' W 122°11'1 9.8
2018-Jan-19 19:30N 38°03' W 122°12'5 9.7
2018-Jan-19 19:00N 38°03' W 122°18'5 9.7
2018-Jan-19 18:31N 38°01' W 122°23'5 9.6
2018-Jan-19 18:00N 37°57' W 122°26'510.4
2018-Jan-19 17:31N 37°52' W 122°24'4 8.3
2018-Jan-19 17:01N 37°49' W 122°20'1 2.9
2018-Jan-19 16:31N 37°49' W 122°19'0 0.0
2018-Jan-19 16:00N 37°49' W 122°19'0 0.0
2018-Jan-19 15:30N 37°49' W 122°19'0 0.0
2018-Jan-19 15:00N 37°49' W 122°19'0 0.0
2018-Jan-19 14:30N 37°49' W 122°19'0 0.0
2018-Jan-19 13:59N 37°49' W 122°19'0 0.0
2018-Jan-19 13:31N 37°49' W 122°19'0 0.0
2018-Jan-19 13:00N 37°49' W 122°19'0 0.0
2018-Jan-19 12:30N 37°49' W 122°19'0 0.0
2018-Jan-19 12:00N 37°49' W 122°19'0 0.0
2018-Jan-19 11:30N 37°49' W 122°19'0 0.0
2018-Jan-19 11:00N 37°49' W 122°19'0 0.0
2018-Jan-19 10:30N 37°49' W 122°19'0 0.0
2018-Jan-19 10:01N 37°49' W 122°19'0 0.0
2018-Jan-19 09:30N 37°49' W 122°19'0 0.0
2018-Jan-19 09:00N 37°49' W 122°19'0 0.0
2018-Jan-19 08:30N 37°49' W 122°19'0 0.0
2018-Jan-19 08:00N 37°49' W 122°19'0 0.0
2018-Jan-19 07:30N 37°49' W 122°19'0 0.0
2018-Jan-19 07:00N 37°49' W 122°19'0 0.0
2018-Jan-19 06:30N 37°49' W 122°19'0 0.0
2018-Jan-19 06:00N 37°49' W 122°19'0 0.0
2018-Jan-19 05:30N 37°49' W 122°19'0 0.0
2018-Jan-19 05:00N 37°49' W 122°19'0 0.0
2018-Jan-19 04:31N 37°49' W 122°19'0 0.0
2018-Jan-19 04:00N 37°49' W 122°19'0 0.0
2018-Jan-19 03:31N 37°49' W 122°19'0 0.0
2018-Jan-19 03:00N 37°49' W 122°19'0 0.0
2018-Jan-19 02:31N 37°49' W 122°19'0 0.0
2018-Jan-19 02:00N 37°49' W 122°19'0 0.0
2018-Jan-19 01:30N 37°49' W 122°19'0 0.0
2018-Jan-19 01:00N 37°49' W 122°19'0 0.0
2018-Jan-19 00:30N 37°49' W 122°19'0 0.0
2018-Jan-19 00:00N 37°49' W 122°19'0 0.0
2018-Jan-18 23:31N 37°49' W 122°19'0 0.0
2018-Jan-18 23:00N 37°49' W 122°19'0 0.0
2018-Jan-18 22:30N 37°49' W 122°19'0 0.0
2018-Jan-18 22:00N 37°49' W 122°19'0 0.0
2018-Jan-18 21:30N 37°49' W 122°19'0 0.0
2018-Jan-18 21:00N 37°49' W 122°19'0 0.0
2018-Jan-18 20:30N 37°49' W 122°19'0 0.0
2018-Jan-18 20:00N 37°49' W 122°19'0 0.0
2018-Jan-18 19:30N 37°49' W 122°19'0 0.0
2018-Jan-18 19:00N 37°49' W 122°19'0 0.0
2018-Jan-18 18:31N 37°49' W 122°19'0 0.0
2018-Jan-18 18:00N 37°49' W 122°19'0 0.0
2018-Jan-18 17:31N 37°49' W 122°19'0 0.0
2018-Jan-18 17:00N 37°49' W 122°19'0 0.0
2018-Jan-18 16:29N 37°49' W 122°19'0 0.0
2018-Jan-18 16:00N 37°49' W 122°19'0 0.0
2018-Jan-18 15:29N 37°49' W 122°19'0 0.0
2018-Jan-18 15:00N 37°49' W 122°19'2 3.2
2018-Jan-18 14:30N 37°48' W 122°19'0 0.2
2018-Jan-18 14:00N 37°48' W 122°19'1 2.1
2018-Jan-18 13:30N 37°48' W 122°17'2 3.1
2018-Jan-18 13:00N 37°48' W 122°19'1 2.3
2018-Jan-18 12:31N 37°48' W 122°21'0 0.0
2018-Jan-18 12:00N 37°48' W 122°21'0 0.1
2018-Jan-18 11:31N 37°48' W 122°21'0 0.1
2018-Jan-18 11:00N 37°48' W 122°21'0 0.0
2018-Jan-18 10:30N 37°48' W 122°21'0 0.1
2018-Jan-18 10:00N 37°48' W 122°21'0 0.1
2018-Jan-18 09:30N 37°48' W 122°21'0 0.0
2018-Jan-18 09:00N 37°48' W 122°21'0 0.0
2018-Jan-18 08:30N 37°48' W 122°21'0 0.0
2018-Jan-18 08:00N 37°48' W 122°21'0 0.0
2018-Jan-18 07:31N 37°48' W 122°21'0 0.0
2018-Jan-18 07:00N 37°48' W 122°21'0 0.0
2018-Jan-18 06:30N 37°48' W 122°21'0 0.0
2018-Jan-18 06:00N 37°48' W 122°21'0 0.1
2018-Jan-18 05:30N 37°48' W 122°21'0 0.0
2018-Jan-18 05:00N 37°48' W 122°21'0 0.1
2018-Jan-18 04:30N 37°48' W 122°21'0 0.1
2018-Jan-18 04:00N 37°48' W 122°21'0 0.1
2018-Jan-18 03:30N 37°48' W 122°21'1 1.9
2018-Jan-18 03:00N 37°48' W 122°20'0 0.9
2018-Jan-18 02:30N 37°48' W 122°20'0 1.0
2018-Jan-18 02:00N 37°48' W 122°21'0 0.0
2018-Jan-18 01:30N 37°48' W 122°21'1 1.9
2018-Jan-18 01:01N 37°49' W 122°19'1 0.8
2018-Jan-18 00:00N 37°49' W 122°19'0 0.0
2018-Jan-17 23:58N 37°49' W 122°19'  
Track history (hours):
 
Tides and Currents Weather Stations Pressure Air Temp Water Temp Dewpoint Dewpoint Depression Visibility Wind Speed Wind Dir Waves Ship Positions

Patriot

Owner: AMNAV Maritime Corporation, Oakland, CA. More information available from US FCC via Universal Licensing System and Coast Guard Vessel Documentation Center.

Last reported at 2018-Jan-23 10:53 UTC. Time now 2018-Jan-23 19:15 UTC.
Position N 38°02' W 122°07'.

Length 31 m; draft 4.6 m.

Type: Tug. MMSI: 366998680.

Date/timePositionNaut miles runAvg speedWind from/ knotsBaromVisibWave heightAir tempDewpointWater temp
2018-Jan-23 10:53N 38°02' W 122°07'0 0.1
2018-Jan-23 10:26N 38°02' W 122°07'0 1.1
2018-Jan-23 09:58N 38°02' W 122°08'0 0.0
2018-Jan-22 22:25N 38°02' W 122°08'0 0.4
2018-Jan-22 21:18N 38°02' W 122°09'1 1.8
2018-Jan-22 21:00N 38°02' W 122°08'13 0.3
2018-Jan-20 20:43N 38°02' W 121°51'14 0.6
2018-Jan-19 21:08N 38°02' W 122°08'2 1.3
2018-Jan-19 19:36N 38°03' W 122°11'1 9.8
2018-Jan-19 19:30N 38°03' W 122°12'5 9.7
2018-Jan-19 19:00N 38°03' W 122°18'5 9.7
2018-Jan-19 18:31N 38°01' W 122°23'5 9.6
2018-Jan-19 18:00N 37°57' W 122°26'510.4
2018-Jan-19 17:31N 37°52' W 122°24'4 8.3
2018-Jan-19 17:01N 37°49' W 122°20'1 2.9
2018-Jan-19 16:31N 37°49' W 122°19'0 0.0
2018-Jan-19 16:00N 37°49' W 122°19'0 0.0
2018-Jan-19 15:30N 37°49' W 122°19'0 0.0
2018-Jan-19 15:00N 37°49' W 122°19'0 0.0
2018-Jan-19 14:30N 37°49' W 122°19'0 0.0
2018-Jan-19 13:59N 37°49' W 122°19'0 0.0
2018-Jan-19 13:31N 37°49' W 122°19'0 0.0
2018-Jan-19 13:00N 37°49' W 122°19'0 0.0
2018-Jan-19 12:30N 37°49' W 122°19'0 0.0
2018-Jan-19 12:00N 37°49' W 122°19'0 0.0
2018-Jan-19 11:30N 37°49' W 122°19'0 0.0
2018-Jan-19 11:00N 37°49' W 122°19'0 0.0
2018-Jan-19 10:30N 37°49' W 122°19'0 0.0
2018-Jan-19 10:01N 37°49' W 122°19'0 0.0
2018-Jan-19 09:30N 37°49' W 122°19'0 0.0
2018-Jan-19 09:00N 37°49' W 122°19'0 0.0
2018-Jan-19 08:30N 37°49' W 122°19'0 0.0
2018-Jan-19 08:00N 37°49' W 122°19'0 0.0
2018-Jan-19 07:30N 37°49' W 122°19'0 0.0
2018-Jan-19 07:00N 37°49' W 122°19'0 0.0
2018-Jan-19 06:30N 37°49' W 122°19'0 0.0
2018-Jan-19 06:00N 37°49' W 122°19'0 0.0
2018-Jan-19 05:30N 37°49' W 122°19'0 0.0
2018-Jan-19 05:00N 37°49' W 122°19'0 0.0
2018-Jan-19 04:31N 37°49' W 122°19'0 0.0
2018-Jan-19 04:00N 37°49' W 122°19'0 0.0
2018-Jan-19 03:31N 37°49' W 122°19'0 0.0
2018-Jan-19 03:00N 37°49' W 122°19'0 0.0
2018-Jan-19 02:31N 37°49' W 122°19'0 0.0
2018-Jan-19 02:00N 37°49' W 122°19'0 0.0
2018-Jan-19 01:30N 37°49' W 122°19'0 0.0
2018-Jan-19 01:00N 37°49' W 122°19'0 0.0
2018-Jan-19 00:30N 37°49' W 122°19'0 0.0
2018-Jan-19 00:00N 37°49' W 122°19'0 0.0
2018-Jan-18 23:31N 37°49' W 122°19'0 0.0
2018-Jan-18 23:00N 37°49' W 122°19'0 0.0
2018-Jan-18 22:30N 37°49' W 122°19'0 0.0
2018-Jan-18 22:00N 37°49' W 122°19'0 0.0
2018-Jan-18 21:30N 37°49' W 122°19'0 0.0
2018-Jan-18 21:00N 37°49' W 122°19'0 0.0
2018-Jan-18 20:30N 37°49' W 122°19'0 0.0
2018-Jan-18 20:00N 37°49' W 122°19'0 0.0
2018-Jan-18 19:30N 37°49' W 122°19'0 0.0
2018-Jan-18 19:00N 37°49' W 122°19'0 0.0
2018-Jan-18 18:31N 37°49' W 122°19'0 0.0
2018-Jan-18 18:00N 37°49' W 122°19'0 0.0
2018-Jan-18 17:31N 37°49' W 122°19'0 0.0
2018-Jan-18 17:00N 37°49' W 122°19'0 0.0
2018-Jan-18 16:29N 37°49' W 122°19'0 0.0
2018-Jan-18 16:00N 37°49' W 122°19'0 0.0
2018-Jan-18 15:29N 37°49' W 122°19'0 0.0
2018-Jan-18 15:00N 37°49' W 122°19'2 3.2
2018-Jan-18 14:30N 37°48' W 122°19'0 0.2
2018-Jan-18 14:00N 37°48' W 122°19'1 2.1
2018-Jan-18 13:30N 37°48' W 122°17'2 3.1
2018-Jan-18 13:00N 37°48' W 122°19'1 2.3
2018-Jan-18 12:31N 37°48' W 122°21'0 0.0
2018-Jan-18 12:00N 37°48' W 122°21'0 0.1
2018-Jan-18 11:31N 37°48' W 122°21'0 0.1
2018-Jan-18 11:00N 37°48' W 122°21'0 0.0
2018-Jan-18 10:30N 37°48' W 122°21'0 0.1
2018-Jan-18 10:00N 37°48' W 122°21'0 0.1
2018-Jan-18 09:30N 37°48' W 122°21'0 0.0
2018-Jan-18 09:00N 37°48' W 122°21'0 0.0
2018-Jan-18 08:30N 37°48' W 122°21'0 0.0
2018-Jan-18 08:00N 37°48' W 122°21'0 0.0
2018-Jan-18 07:31N 37°48' W 122°21'0 0.0
2018-Jan-18 07:00N 37°48' W 122°21'0 0.0
2018-Jan-18 06:30N 37°48' W 122°21'0 0.0
2018-Jan-18 06:00N 37°48' W 122°21'0 0.1
2018-Jan-18 05:30N 37°48' W 122°21'0 0.0
2018-Jan-18 05:00N 37°48' W 122°21'0 0.1
2018-Jan-18 04:30N 37°48' W 122°21'0 0.1
2018-Jan-18 04:00N 37°48' W 122°21'0 0.1
2018-Jan-18 03:30N 37°48' W 122°21'1 1.9
2018-Jan-18 03:00N 37°48' W 122°20'0 0.9
2018-Jan-18 02:30N 37°48' W 122°20'0 1.0
2018-Jan-18 02:00N 37°48' W 122°21'0 0.0
2018-Jan-18 01:30N 37°48' W 122°21'1 1.9
2018-Jan-18 01:01N 37°49' W 122°19'1 0.8
2018-Jan-18 00:00N 37°49' W 122°19'0 0.0
2018-Jan-17 23:58N 37°49' W 122°19'  

Dump ship's entire track history